Observation data for Brownfield on 12/13/2018      Previous  Date       Current Mesonet Observations  Soil Data  Daily Summary Page  Observations in Plain Language
KBWS 130600Z 23011KT 08/04 A2971 RMK A01 T00800038  RH  076%=      5-min Rain = 0
KBWS 130605Z 24011KT 08/04 A2971 RMK A01 T00800038  RH  076%=      5-min Rain = 0
KBWS 130610Z 24011KT 08/04 A2971 RMK A01 T00790038  RH  076%=      5-min Rain = 0
KBWS 130615Z 24010KT 08/04 A2971 RMK A01 T00780038  RH  077%=      5-min Rain = 0
KBWS 130620Z 24010KT 08/04 A2971 RMK A01 T00770037  RH  077%=      5-min Rain = 0
KBWS 130625Z 24010KT 08/04 A2971 RMK A01 T00760037  RH  077%=      5-min Rain = 0
KBWS 130630Z 24009KT 07/04 A2971 RMK A01 T00740037  RH  079%=      5-min Rain = 0
KBWS 130635Z 24010KT 07/04 A297 RMK A01 T00740037  RH  078%=      5-min Rain = 0
KBWS 130640Z 24011KT 07/04 A297 RMK A01 T00740037  RH  078%=      5-min Rain = 0
KBWS 130645Z 24011KT 07/04 A297 RMK A01 T00730037  RH  079%=      5-min Rain = 0
KBWS 130650Z 24011KT 07/04 A297 RMK A01 T00720036  RH  079%=      5-min Rain = 0
KBWS 130655Z 24011KT 07/04 A297 RMK A01 T00700036  RH  080%=      5-min Rain = 0
KBWS 130700Z 24010KT 07/04 A297 RMK A01 T00680035  RH  080%=      5-min Rain = 0
KBWS 130705Z 24010KT 07/04 A297 RMK A01 T00670035  RH  081%=      5-min Rain = 0
KBWS 130710Z 24009KT 07/04 A297 RMK A01 T00670035  RH  081%=      5-min Rain = 0
KBWS 130715Z 24009KT 07/03 A2969 RMK A01 T00650034  RH  082%=      5-min Rain = 0
KBWS 130720Z 24010KT 06/03 A2969 RMK A01 T00640034  RH  082%=      5-min Rain = 0
KBWS 130725Z 24009KT 06/03 A2969 RMK A01 T00630034  RH  082%=      5-min Rain = 0
KBWS 130730Z 24010KT 06/03 A2969 RMK A01 T00630034  RH  083%=      5-min Rain = 0
KBWS 130735Z 25009KT 06/03 A2969 RMK A01 T00620034  RH  083%=      5-min Rain = 0
KBWS 130740Z 25008KT 06/03 A2969 RMK A01 T00610033  RH  084%=      5-min Rain = 0
KBWS 130745Z 25009KT 06/03 A2968 RMK A01 T00610034  RH  084%=      5-min Rain = 0
KBWS 130750Z 25009KT 06/03 A2968 RMK A01 T00610034  RH  084%=      5-min Rain = 0
KBWS 130755Z 25009KT 06/04 A2968 RMK A01 T00630035  RH  084%=      5-min Rain = 0
KBWS 130800Z 26009KT 06/04 A2969 RMK A01 T00640037  RH  084%=      5-min Rain = 0
KBWS 130805Z 26010KT 07/04 A2969 RMK A01 T00670037  RH  082%=      5-min Rain = 0
KBWS 130810Z 28009KT 07/04 A297 RMK A01 T00670038  RH  082%=      5-min Rain = 0
KBWS 130815Z 28008KT 06/04 A297 RMK A01 T00640037  RH  084%=      5-min Rain = 0
KBWS 130820Z 27007KT 06/04 A2971 RMK A01 T00620036  RH  084%=      5-min Rain = 0
KBWS 130825Z 26007KT 06/04 A2971 RMK A01 T00610036  RH  085%=      5-min Rain = 0
KBWS 130830Z 25009KT 06/04 A2971 RMK A01 T00630037  RH  084%=      5-min Rain = 0
KBWS 130835Z 26011KT 07/04 A2971 RMK A01 T00660039  RH  084%=      5-min Rain = 0
KBWS 130840Z 28012G20KT 08/04 A2971 RMK A01 T00750039  RH  079%=      5-min Rain = 0
KBWS 130845Z 28014G19KT 08/04 A2971 RMK A01 T00770042  RH  080%=      5-min Rain = 0
KBWS 130850Z 29012G17KT 08/04 A2971 RMK A01 T00750044  RH  082%=      5-min Rain = 0
KBWS 130855Z 29013G18KT 08/04 A2971 RMK A01 T00750043  RH  082%=      5-min Rain = 0
KBWS 130900Z 29018G23KT 08/04 A2971 RMK A01 T00820039  RH  075%=      5-min Rain = 0
KBWS 130905Z 29017KT 08/04 A2971 RMK A01 T00830040  RH  076%=      5-min Rain = 0
KBWS 130910Z 30021G26KT 08/04 A297 RMK A01 T00820040  RH  076%=      5-min Rain = 0
KBWS 130915Z 31021G27KT 08/04 A297 RMK A01 T00840041  RH  075%=      5-min Rain = 0
KBWS 130920Z 31020G26KT 08/04 A297 RMK A01 T00820041  RH  077%=      5-min Rain = 0
KBWS 130925Z 31016G22KT 08/04 A2971 RMK A01 T00810038  RH  075%=      5-min Rain = 0
KBWS 130930Z 32016KT 08/04 A297 RMK A01 T00820037  RH  074%=      5-min Rain = 0
KBWS 130935Z 33016G22KT 08/04 A297 RMK A01 T00790037  RH  076%=      5-min Rain = 0.01
KBWS 130940Z 33015KT 08/03 A297 RMK A01 T00790034  RH  074%=      5-min Rain = 0
KBWS 130945Z 33017KT 08/03 A297 RMK A01 T00810031  RH  071%=      5-min Rain = 0
KBWS 130950Z 32015G20KT 08/03 A2971 RMK A01 T00810031  RH  072%=      5-min Rain = 0
KBWS 130955Z 32018G24KT 08/03 A2971 RMK A01 T00810029  RH  071%=      5-min Rain = 0
KBWS 131000Z 32020G25KT 08/02 A2971 RMK A01 T00840023  RH  066%=      5-min Rain = 0
KBWS 131005Z 32020KT 08/02 A2971 RMK A01 T00830023  RH  067%=      5-min Rain = 0
KBWS 131010Z 32022KT 08/02 A2971 RMK A01 T00830020  RH  066%=      5-min Rain = 0
KBWS 131015Z 32016G21KT 08/02 A2971 RMK A01 T00800023  RH  068%=      5-min Rain = 0
KBWS 131020Z 32014KT 08/02 A2972 RMK A01 T00790022  RH  068%=      5-min Rain = 0
KBWS 131025Z 32017G23KT 08/01 A2972 RMK A01 T00790014  RH  064%=      5-min Rain = 0
KBWS 131030Z 32017G24KT 08/01 A2973 RMK A01 T00780008  RH  062%=      5-min Rain = 0
KBWS 131035Z 31019G25KT 08/M00 A2973 RMK A01 T00761001  RH  059%=      5-min Rain = 0
KBWS 131040Z 31018KT 08/M01 A2973 RMK A01 T00761007  RH  056%=      5-min Rain = 0
KBWS 131045Z 32017KT 07/M01 A2974 RMK A01 T00741007  RH  057%=      5-min Rain = 0
KBWS 131050Z 32018G32KT 07/M00 A2974 RMK A01 T00711002  RH  060%=      5-min Rain = 0
KBWS 131055Z 33028G37KT 06/M00 A2976 RMK A01 T00641001  RH  064%=      5-min Rain = 0
KBWS 131100Z 32023G34KT 06/01 A2976 RMK A01 T00550010  RH  074%=      5-min Rain = 0
KBWS 131105Z 32024G33KT 05/01 A2975 RMK A01 T00540013  RH  076%=      5-min Rain = 0.01
KBWS 131110Z 34018G24KT 05/02 A2976 RMK A01 T00510017  RH  079%=      5-min Rain = 0
KBWS 131115Z 35018G26KT 05/02 A2977 RMK A01 T00500019  RH  081%=      5-min Rain = 0
KBWS 131120Z 35019G27KT 05/02 A2978 RMK A01 T00470018  RH  082%=      5-min Rain = 0
KBWS 131125Z 35015G25KT 05/02 A2978 RMK A01 T00450019  RH  084%=      5-min Rain = 0.01
KBWS 131130Z 36015G22KT 04/02 A2978 RMK A01 T00430018  RH  085%=      5-min Rain = 0
KBWS 131135Z 35013G19KT 04/02 A2978 RMK A01 T00420019  RH  086%=      5-min Rain = 0
KBWS 131140Z 35015G22KT 04/02 A2978 RMK A01 T00420017  RH  085%=      5-min Rain = 0.01
KBWS 131145Z 35019G27KT 04/02 A2979 RMK A01 T00410015  RH  084%=      5-min Rain = 0
KBWS 131150Z 35018G28KT 04/01 A2979 RMK A01 T00410013  RH  083%=      5-min Rain = 0
KBWS 131155Z 35020G30KT 04/01 A298 RMK A01 T00400012  RH  083%=      5-min Rain = 0
KBWS 131200Z 35021G29KT 04/01 A298 RMK A01 T00370010  RH  083%=      5-min Rain = 0
KBWS 131205Z 35019G31KT 04/01 A298 RMK A01 T00350009  RH  084%=      5-min Rain = 0
KBWS 131210Z 36019G24KT 03/01 A2981 RMK A01 T00340006  RH  083%=      5-min Rain = 0.01
KBWS 131215Z 35019G29KT 03/00 A2981 RMK A01 T00340002  RH  081%=      5-min Rain = 0
KBWS 131220Z 36022G32KT 04/M00 A2981 RMK A01 T00351003  RH  077%=      5-min Rain = 0
KBWS 131225Z 00025G35KT 04/M01 A2982 RMK A01 T00361008  RH  074%=      5-min Rain = 0
KBWS 131230Z 00022G33KT 04/M01 A2982 RMK A01 T00371009  RH  073%=      5-min Rain = 0
KBWS 131235Z 36022G31KT 04/M01 A2982 RMK A01 T00371010  RH  072%=      5-min Rain = 0
KBWS 131240Z 35020G27KT 04/M01 A2983 RMK A01 T00371010  RH  072%=      5-min Rain = 0
KBWS 131245Z 35019G28KT 04/M01 A2983 RMK A01 T00381009  RH  073%=      5-min Rain = 0
KBWS 131250Z 35017G24KT 04/M01 A2983 RMK A01 T00381008  RH  073%=      5-min Rain = 0
KBWS 131255Z 35015G22KT 04/M01 A2984 RMK A01 T00381007  RH  073%=      5-min Rain = 0
KBWS 131300Z 34018G27KT 04/M01 A2984 RMK A01 T00381009  RH  072%=      5-min Rain = 0
KBWS 131305Z 35016G22KT 04/M01 A2985 RMK A01 T00391008  RH  072%=      5-min Rain = 0
KBWS 131310Z 36017G26KT 04/M01 A2985 RMK A01 T00381006  RH  074%=      5-min Rain = 0
KBWS 131315Z 36020G28KT 04/M01 A2985 RMK A01 T00391005  RH  074%=      5-min Rain = 0
KBWS 131320Z 36022G30KT 04/M01 A2985 RMK A01 T00391005  RH  074%=      5-min Rain = 0
KBWS 131325Z 00022G33KT 04/M00 A2985 RMK A01 T00391004  RH  074%=      5-min Rain = 0
KBWS 131330Z 00023G30KT 04/M00 A2986 RMK A01 T00401004  RH  074%=      5-min Rain = 0
KBWS 131335Z 01025G32KT 04/M00 A2986 RMK A01 T00401004  RH  074%=      5-min Rain = 0
KBWS 131340Z 00022G31KT 04/M00 A2986 RMK A01 T00391003  RH  075%=      5-min Rain = 0
KBWS 131345Z 00027G34KT 04/M01 A2986 RMK A01 T00391005  RH  074%=      5-min Rain = 0
KBWS 131350Z 00025G34KT 04/M01 A2986 RMK A01 T00381005  RH  074%=      5-min Rain = 0
KBWS 131355Z 00024G33KT 04/M00 A2987 RMK A01 T00381004  RH  075%=      5-min Rain = 0
KBWS 131400Z 36023G31KT 04/M00 A2987 RMK A01 T00361002  RH  077%=      5-min Rain = 0
KBWS 131405Z 00023G32KT 03/M00 A2987 RMK A01 T00341003  RH  077%=      5-min Rain = 0
KBWS 131410Z 00029G40KT 03/M01 A2988 RMK A01 T00341006  RH  076%=      5-min Rain = 0
KBWS 131415Z 00028G36KT 03/M01 A2988 RMK A01 T00341006  RH  076%=      5-min Rain = 0
KBWS 131420Z 00028G36KT 03/M01 A2988 RMK A01 T00341006  RH  076%=      5-min Rain = 0
KBWS 131425Z 00031G39KT 03/M01 A2989 RMK A01 T00341006  RH  076%=      5-min Rain = 0
KBWS 131430Z 36028G37KT 03/M01 A2989 RMK A01 T00341006  RH  076%=      5-min Rain = 0
KBWS 131435Z 00026G38KT 03/M01 A299 RMK A01 T00341007  RH  075%=      5-min Rain = 0
KBWS 131440Z 00028G40KT 04/M01 A299 RMK A01 T00351009  RH  074%=      5-min Rain = 0
KBWS 131445Z 00027G34KT 04/M01 A299 RMK A01 T00361012  RH  072%=      5-min Rain = 0
KBWS 131450Z 00026G39KT 04/M01 A2991 RMK A01 T00361013  RH  071%=      5-min Rain = 0
KBWS 131455Z 00028G37KT 04/M02 A2991 RMK A01 T00371015  RH  069%=      5-min Rain = 0
KBWS 131500Z 00029G38KT 04/M02 A2991 RMK A01 T00381018  RH  068%=      5-min Rain = 0
KBWS 131505Z 00029G41KT 04/M02 A2992 RMK A01 T00381019  RH  067%=      5-min Rain = 0
KBWS 131510Z 00027G38KT 04/M02 A2992 RMK A01 T00381019  RH  067%=      5-min Rain = 0
KBWS 131515Z 00031G42KT 04/M02 A2992 RMK A01 T00371019  RH  067%=      5-min Rain = 0
KBWS 131520Z 36031G42KT 04/M02 A2993 RMK A01 T00381018  RH  067%=      5-min Rain = 0
KBWS 131525Z 36028G41KT 04/M02 A2994 RMK A01 T00391018  RH  067%=      5-min Rain = 0
KBWS 131530Z 36026G37KT 04/M02 A2994 RMK A01 T00401017  RH  067%=      5-min Rain = 0
KBWS 131535Z 36030G41KT 04/M02 A2995 RMK A01 T00411019  RH  065%=      5-min Rain = 0
KBWS 131540Z 36027G36KT 04/M02 A2995 RMK A01 T00411018  RH  066%=      5-min Rain = 0
KBWS 131545Z 36028G39KT 04/M02 A2996 RMK A01 T00411019  RH  066%=      5-min Rain = 0
KBWS 131550Z 00030G40KT 04/M02 A2996 RMK A01 T00411019  RH  066%=      5-min Rain = 0
KBWS 131555Z 36030G41KT 04/M02 A2997 RMK A01 T00411021  RH  065%=      5-min Rain = 0
KBWS 131600Z 36026G35KT 04/M02 A2997 RMK A01 T00411019  RH  066%=      5-min Rain = 0
KBWS 131605Z 35027G36KT 04/M02 A2997 RMK A01 T00421021  RH  064%=      5-min Rain = 0
KBWS 131610Z 36029G40KT 04/M02 A2998 RMK A01 T00431023  RH  063%=      5-min Rain = 0
KBWS 131615Z 36025G35KT 04/M02 A2998 RMK A01 T00431023  RH  063%=      5-min Rain = 0
KBWS 131620Z 35022G32KT 04/M02 A2999 RMK A01 T00431022  RH  064%=      5-min Rain = 0
KBWS 131625Z 36025G33KT 04/M03 A2999 RMK A01 T00441025  RH  062%=      5-min Rain = 0
KBWS 131630Z 36027G35KT 04/M03 A2999 RMK A01 T00441028  RH  060%=      5-min Rain = 0
KBWS 131635Z 35027G34KT 05/M03 A30 RMK A01 T00451031  RH  058%=      5-min Rain = 0
KBWS 131640Z 35029G42KT 05/M04 A30 RMK A01 T00461036  RH  056%=      5-min Rain = 0
KBWS 131645Z 35030G42KT 05/M04 A30 RMK A01 T00461037  RH  056%=      5-min Rain = 0
KBWS 131650Z 36027G43KT 05/M04 A30 RMK A01 T00461037  RH  056%=      5-min Rain = 0
KBWS 131655Z 36029G44KT 05/M04 A30 RMK A01 T00461037  RH  056%=      5-min Rain = 0
KBWS 131700Z 35027G37KT 05/M04 A3001 RMK A01 T00471037  RH  055%=      5-min Rain = 0
KBWS 131705Z 35026G40KT 05/M04 A3001 RMK A01 T00471037  RH  055%=      5-min Rain = 0
KBWS 131710Z 36025G33KT 05/M04 A3001 RMK A01 T00471037  RH  055%=      5-min Rain = 0
KBWS 131715Z 36025G36KT 05/M04 A3001 RMK A01 T00481038  RH  054%=      5-min Rain = 0
KBWS 131720Z 35026G38KT 05/M04 A3001 RMK A01 T00481039  RH  054%=      5-min Rain = 0
KBWS 131725Z 35025G40KT 05/M04 A3001 RMK A01 T00481041  RH  053%=      5-min Rain = 0
KBWS 131730Z 35026G38KT 05/M04 A3001 RMK A01 T00481042  RH  053%=      5-min Rain = 0
KBWS 131735Z 35027G34KT 05/M04 A3002 RMK A01 T00491044  RH  052%=      5-min Rain = 0
KBWS 131740Z 35027G36KT 05/M04 A3002 RMK A01 T00491043  RH  052%=      5-min Rain = 0
KBWS 131745Z 35025G36KT 05/M05 A3002 RMK A01 T00491045  RH  051%=      5-min Rain = 0
KBWS 131750Z 35026G41KT 05/M05 A3002 RMK A01 T00501045  RH  051%=      5-min Rain = 0
KBWS 131755Z 35028G37KT 05/M05 A3002 RMK A01 T00511047  RH  050%=      5-min Rain = 0
KBWS 131800Z 35028G39KT 05/M05 A3002 RMK A01 T00521046  RH  050%=      5-min Rain = 0
KBWS 131805Z 35029G43KT 05/M05 A3002 RMK A01 T00531049  RH  048%=      5-min Rain = 0
KBWS 131810Z 35026G38KT 05/M05 A3002 RMK A01 T00541047  RH  049%=      5-min Rain = 0
KBWS 131815Z 35028G40KT 06/M05 A3002 RMK A01 T00551046  RH  049%=      5-min Rain = 0
KBWS 131820Z 35026G41KT 06/M05 A3002 RMK A01 T00551047  RH  048%=      5-min Rain = 0
KBWS 131825Z 35027G40KT 06/M05 A3002 RMK A01 T00561049  RH  047%=      5-min Rain = 0
KBWS 131830Z 35031G41KT 06/M05 A3002 RMK A01 T00561053  RH  046%=      5-min Rain = 0
KBWS 131835Z 35025G37KT 06/M05 A3001 RMK A01 T00561049  RH  047%=      5-min Rain = 0
KBWS 131840Z 34028G45KT 06/M05 A3001 RMK A01 T00571048  RH  047%=      5-min Rain = 0
KBWS 131845Z 35029G38KT 06/M05 A3001 RMK A01 T00571052  RH  046%=      5-min Rain = 0
KBWS 131850Z 35029G39KT 06/M05 A3001 RMK A01 T00611050  RH  045%=      5-min Rain = 0
KBWS 131855Z 35028G41KT 06/M05 A3001 RMK A01 T00631048  RH  045%=      5-min Rain = 0
KBWS 131900Z 34029G38KT 06/M05 A3001 RMK A01 T00621045  RH  047%=      5-min Rain = 0
KBWS 131905Z 34030G43KT 06/M05 A3002 RMK A01 T00591049  RH  046%=      5-min Rain = 0
KBWS 131910Z 35025G40KT 06/M05 A3001 RMK A01 T00591046  RH  047%=      5-min Rain = 0
KBWS 131915Z 35031G38KT 06/M05 A3002 RMK A01 T00601052  RH  045%=      5-min Rain = 0
KBWS 131920Z 35030G42KT 06/M05 A3002 RMK A01 T00601052  RH  045%=      5-min Rain = 0
KBWS 131925Z 35029G40KT 06/M05 A3002 RMK A01 T00611052  RH  045%=      5-min Rain = 0
KBWS 131930Z 35029G38KT 06/M05 A3002 RMK A01 T00631052  RH  044%=      5-min Rain = 0
KBWS 131935Z 35027G38KT 06/M05 A3001 RMK A01 T00641050  RH  044%=      5-min Rain = 0
KBWS 131940Z 35027G42KT 07/M05 A3002 RMK A01 T00661049  RH  044%=      5-min Rain = 0
KBWS 131945Z 35030G42KT 07/M06 A3002 RMK A01 T00651056  RH  042%=      5-min Rain = 0
KBWS 131950Z 35026G34KT 07/M05 A3002 RMK A01 T00651053  RH  043%=      5-min Rain = 0
KBWS 131955Z 35027G40KT 07/M05 A3002 RMK A01 T00651053  RH  043%=      5-min Rain = 0
KBWS 132000Z 35026G38KT 07/M05 A3002 RMK A01 T00651052  RH  043%=      5-min Rain = 0
KBWS 132005Z 35030G40KT 06/M06 A3002 RMK A01 T00641060  RH  041%=      5-min Rain = 0
KBWS 132010Z 35029G39KT 07/M06 A3002 RMK A01 T00651060  RH  041%=      5-min Rain = 0
KBWS 132015Z 34027G38KT 07/M06 A3002 RMK A01 T00651056  RH  042%=      5-min Rain = 0
KBWS 132020Z 35030G42KT 06/M06 A3002 RMK A01 T00641063  RH  040%=      5-min Rain = 0
KBWS 132025Z 35029G39KT 06/M07 A3003 RMK A01 T00631065  RH  040%=      5-min Rain = 0
KBWS 132030Z 34032G46KT 06/M07 A3003 RMK A01 T00631065  RH  040%=      5-min Rain = 0
KBWS 132035Z 34029G38KT 06/M06 A3003 RMK A01 T00631063  RH  041%=      5-min Rain = 0
KBWS 132040Z 34028G41KT 06/M06 A3003 RMK A01 T00641060  RH  041%=      5-min Rain = 0
KBWS 132045Z 34030G42KT 07/M06 A3003 RMK A01 T00651062  RH  040%=      5-min Rain = 0
KBWS 132050Z 34028G40KT 07/M06 A3003 RMK A01 T00671062  RH  040%=      5-min Rain = 0
KBWS 132055Z 34027G38KT 07/M06 A3003 RMK A01 T00681061  RH  040%=      5-min Rain = 0
KBWS 132100Z 35032G44KT 07/M07 A3003 RMK A01 T00691071  RH  037%=      5-min Rain = 0
KBWS 132105Z 35027G39KT 07/M07 A3003 RMK A01 T00711068  RH  037%=      5-min Rain = 0
KBWS 132110Z 35026G34KT 07/M07 A3003 RMK A01 T00721070  RH  036%=      5-min Rain = 0
KBWS 132115Z 35028G37KT 07/M08 A3003 RMK A01 T00721076  RH  034%=      5-min Rain = 0
KBWS 132120Z 34025G37KT 07/M08 A3003 RMK A01 T00711076  RH  035%=      5-min Rain = 0
KBWS 132125Z 35028G40KT 07/M08 A3003 RMK A01 T00701078  RH  034%=      5-min Rain = 0
KBWS 132130Z 35023G34KT 07/M08 A3003 RMK A01 T00711075  RH  035%=      5-min Rain = 0
KBWS 132135Z 35026G39KT 07/M08 A3003 RMK A01 T00711077  RH  034%=      5-min Rain = 0
KBWS 132140Z 35029G40KT 07/M08 A3003 RMK A01 T00731079  RH  033%=      5-min Rain = 0
KBWS 132145Z 34028G40KT 08/M08 A3003 RMK A01 T00751079  RH  033%=      5-min Rain = 0
KBWS 132150Z 34030G41KT 08/M08 A3003 RMK A01 T00771083  RH  032%=      5-min Rain = 0
KBWS 132155Z 34029G43KT 08/M09 A3003 RMK A01 T00781089  RH  030%=      5-min Rain = 0
KBWS 132200Z 34030G40KT 08/M09 A3004 RMK A01 T00771086  RH  031%=      5-min Rain = 0
KBWS 132205Z 34030G39KT 08/M09 A3004 RMK A01 T00771089  RH  030%=      5-min Rain = 0
KBWS 132210Z 35025G38KT 08/M09 A3004 RMK A01 T00771087  RH  031%=      5-min Rain = 0
KBWS 132215Z 35029G44KT 08/M09 A3004 RMK A01 T00761090  RH  030%=      5-min Rain = 0
KBWS 132220Z 35027G38KT 08/M09 A3004 RMK A01 T00761089  RH  030%=      5-min Rain = 0
KBWS 132225Z 34026G35KT 08/M09 A3005 RMK A01 T00761086  RH  031%=      5-min Rain = 0
KBWS 132230Z 34026G35KT 08/M09 A3005 RMK A01 T00761085  RH  031%=      5-min Rain = 0
KBWS 132235Z 34025G35KT 08/M09 A3005 RMK A01 T00751087  RH  031%=      5-min Rain = 0
KBWS 132240Z 34024G37KT 07/M09 A3005 RMK A01 T00741086  RH  031%=      5-min Rain = 0
KBWS 132245Z 34024G35KT 07/M09 A3006 RMK A01 T00741091  RH  030%=      5-min Rain = 0
KBWS 132250Z 35026G34KT 07/M09 A3006 RMK A01 T00731094  RH  030%=      5-min Rain = 0
KBWS 132255Z 34022G33KT 07/M09 A3006 RMK A01 T00721089  RH  031%=      5-min Rain = 0
KBWS 132300Z 34021G29KT 07/M09 A3006 RMK A01 T00711085  RH  032%=      5-min Rain = 0
KBWS 132305Z 34022G31KT 07/M08 A3007 RMK A01 T00701083  RH  033%=      5-min Rain = 0
KBWS 132310Z 34023G31KT 07/M09 A3007 RMK A01 T00691089  RH  032%=      5-min Rain = 0
KBWS 132315Z 34024G35KT 07/M10 A3007 RMK A01 T00691095  RH  030%=      5-min Rain = 0
KBWS 132320Z 34025G39KT 07/M10 A3007 RMK A01 T00671097  RH  030%=      5-min Rain = 0
KBWS 132325Z 34021G28KT 07/M09 A3008 RMK A01 T00651094  RH  031%=      5-min Rain = 0
KBWS 132330Z 34023G30KT 06/M09 A3008 RMK A01 T00641093  RH  032%=      5-min Rain = 0
KBWS 132335Z 34022G28KT 06/M09 A3008 RMK A01 T00621090  RH  033%=      5-min Rain = 0
KBWS 132340Z 34021G29KT 06/M09 A3008 RMK A01 T00601087  RH  034%=      5-min Rain = 0
KBWS 132345Z 34020G25KT 06/M09 A3008 RMK A01 T00601086  RH  035%=      5-min Rain = 0
KBWS 132350Z 34021G33KT 06/M09 A3008 RMK A01 T00591087  RH  035%=      5-min Rain = 0
KBWS 132355Z 34022G29KT 06/M09 A3009 RMK A01 T00591091  RH  033%=      5-min Rain = 0
KBWS 140000Z 34023G30KT 06/M09 A3009 RMK A01 T00581093  RH  033%=      5-min Rain = 0
KBWS 140005Z 34022G30KT 06/M10 A3009 RMK A01 T00571095  RH  033%=      5-min Rain = 0
KBWS 140010Z 34023G30KT 06/M10 A3009 RMK A01 T00561095  RH  033%=      5-min Rain = 0
KBWS 140015Z 34022G27KT 06/M09 A3009 RMK A01 T00551094  RH  034%=      5-min Rain = 0
KBWS 140020Z 34021G27KT 05/M10 A3009 RMK A01 T00541096  RH  033%=      5-min Rain = 0
KBWS 140025Z 34020G27KT 05/M10 A301 RMK A01 T00531096  RH  034%=      5-min Rain = 0
KBWS 140030Z 34020G26KT 05/M10 A301 RMK A01 T00521098  RH  033%=      5-min Rain = 0
KBWS 140035Z 34020G27KT 05/M10 A301 RMK A01 T00511099  RH  033%=      5-min Rain = 0
KBWS 140040Z 34021G28KT 05/M10 A3011 RMK A01 T00521101  RH  032%=      5-min Rain = 0
KBWS 140045Z 34019G26KT 05/M10 A3011 RMK A01 T00501100  RH  033%=      5-min Rain = 0
KBWS 140050Z 34018G24KT 05/M10 A3011 RMK A01 T00491099  RH  034%=      5-min Rain = 0
KBWS 140055Z 34019G25KT 05/M10 A3012 RMK A01 T00491100  RH  034%=      5-min Rain = 0
KBWS 140100Z 34018G23KT 05/M10 A3012 RMK A01 T00481099  RH  034%=      5-min Rain = 0
KBWS 140105Z 34018G24KT 05/M10 A3012 RMK A01 T00471099  RH  034%=      5-min Rain = 0
KBWS 140110Z 34018G24KT 05/M10 A3013 RMK A01 T00461098  RH  035%=      5-min Rain = 0
KBWS 140115Z 34017KT 04/M10 A3013 RMK A01 T00441096  RH  036%=      5-min Rain = 0
KBWS 140120Z 34016G21KT 04/M10 A3014 RMK A01 T00431095  RH  036%=      5-min Rain = 0
KBWS 140125Z 33016KT 04/M09 A3014 RMK A01 T00411093  RH  037%=      5-min Rain = 0
KBWS 140130Z 33016KT 04/M09 A3014 RMK A01 T00401092  RH  038%=      5-min Rain = 0
KBWS 140135Z 33017KT 04/M09 A3014 RMK A01 T00391093  RH  038%=      5-min Rain = 0
KBWS 140140Z 34015G21KT 04/M09 A3015 RMK A01 T00381092  RH  039%=      5-min Rain = 0
KBWS 140145Z 33017KT 04/M09 A3015 RMK A01 T00371093  RH  038%=      5-min Rain = 0
KBWS 140150Z 34016KT 04/M09 A3015 RMK A01 T00371092  RH  039%=      5-min Rain = 0
KBWS 140155Z 34017KT 04/M09 A3015 RMK A01 T00371094  RH  038%=      5-min Rain = 0
KBWS 140200Z 34015G20KT 04/M09 A3015 RMK A01 T00351092  RH  039%=      5-min Rain = 0
KBWS 140205Z 34015G20KT 03/M09 A3015 RMK A01 T00341092  RH  039%=      5-min Rain = 0
KBWS 140210Z 34015G20KT 03/M09 A3016 RMK A01 T00341093  RH  039%=      5-min Rain = 0
KBWS 140215Z 34015G20KT 03/M09 A3016 RMK A01 T00331092  RH  040%=      5-min Rain = 0
KBWS 140220Z 33016G21KT 03/M09 A3016 RMK A01 T00321093  RH  040%=      5-min Rain = 0
KBWS 140225Z 34016KT 03/M09 A3016 RMK A01 T00321093  RH  040%=      5-min Rain = 0
KBWS 140230Z 34016G24KT 03/M09 A3016 RMK A01 T00321094  RH  040%=      5-min Rain = 0
KBWS 140235Z 34017KT 03/M10 A3016 RMK A01 T00321095  RH  039%=      5-min Rain = 0
KBWS 140240Z 34015G21KT 03/M09 A3016 RMK A01 T00311094  RH  040%=      5-min Rain = 0
KBWS 140245Z 34015G20KT 03/M10 A3017 RMK A01 T00311096  RH  039%=      5-min Rain = 0
KBWS 140250Z 34015G22KT 03/M10 A3017 RMK A01 T00301096  RH  040%=      5-min Rain = 0
KBWS 140255Z 34015G21KT 03/M10 A3017 RMK A01 T00301095  RH  040%=      5-min Rain = 0
KBWS 140300Z 34015KT 03/M10 A3017 RMK A01 T00291096  RH  040%=      5-min Rain = 0
KBWS 140305Z 34015G22KT 03/M10 A3017 RMK A01 T00291097  RH  040%=      5-min Rain = 0
KBWS 140310Z 34015G21KT 03/M10 A3018 RMK A01 T00291097  RH  039%=      5-min Rain = 0
KBWS 140315Z 34016G22KT 03/M10 A3018 RMK A01 T00301098  RH  039%=      5-min Rain = 0
KBWS 140320Z 34016G25KT 03/M10 A3018 RMK A01 T00301098  RH  039%=      5-min Rain = 0
KBWS 140325Z 34015G21KT 03/M10 A3018 RMK A01 T00291097  RH  039%=      5-min Rain = 0
KBWS 140330Z 34015KT 03/M10 A3018 RMK A01 T00281096  RH  040%=      5-min Rain = 0
KBWS 140335Z 34016KT 03/M10 A3018 RMK A01 T00251095  RH  041%=      5-min Rain = 0
KBWS 140340Z 34016KT 02/M09 A3018 RMK A01 T00231094  RH  042%=      5-min Rain = 0
KBWS 140345Z 33016G21KT 02/M10 A3018 RMK A01 T00231095  RH  042%=      5-min Rain = 0
KBWS 140350Z 33016KT 02/M09 A3019 RMK A01 T00231094  RH  042%=      5-min Rain = 0
KBWS 140355Z 33017KT 02/M09 A3019 RMK A01 T00221094  RH  043%=      5-min Rain = 0
KBWS 140400Z 33017KT 02/M09 A3019 RMK A01 T00211094  RH  043%=      5-min Rain = 0
KBWS 140405Z 33017KT 02/M10 A3019 RMK A01 T00211095  RH  043%=      5-min Rain = 0
KBWS 140410Z 33018KT 02/M10 A3019 RMK A01 T00211096  RH  042%=      5-min Rain = 0
KBWS 140415Z 33017G24KT 02/M10 A3019 RMK A01 T00201095  RH  043%=      5-min Rain = 0
KBWS 140420Z 33017KT 02/M10 A3019 RMK A01 T00191095  RH  043%=      5-min Rain = 0
KBWS 140425Z 33018KT 02/M10 A3019 RMK A01 T00191095  RH  043%=      5-min Rain = 0
KBWS 140430Z 33017G23KT 02/M10 A3019 RMK A01 T00181096  RH  043%=      5-min Rain = 0
KBWS 140435Z 33018G23KT 02/M10 A3019 RMK A01 T00181097  RH  043%=      5-min Rain = 0
KBWS 140440Z 33017G22KT 02/M10 A302 RMK A01 T00181097  RH  043%=      5-min Rain = 0
KBWS 140445Z 33018G23KT 02/M10 A302 RMK A01 T00171097  RH  043%=      5-min Rain = 0
KBWS 140450Z 33018G23KT 02/M10 A302 RMK A01 T00151096  RH  044%=      5-min Rain = 0
KBWS 140455Z 32015G20KT 01/M09 A302 RMK A01 T00131094  RH  045%=      5-min Rain = 0
KBWS 140500Z 33015G21KT 01/M09 A302 RMK A01 T00091092  RH  047%=      5-min Rain = 0
KBWS 140505Z 32016G21KT 01/M09 A302 RMK A01 T00081092  RH  048%=      5-min Rain = 0
KBWS 140510Z 33016KT 01/M10 A302 RMK A01 T00081095  RH  047%=      5-min Rain = 0
KBWS 140515Z 33017KT 01/M10 A302 RMK A01 T00101096  RH  046%=      5-min Rain = 0
KBWS 140520Z 33017KT 01/M10 A302 RMK A01 T00101097  RH  045%=      5-min Rain = 0
KBWS 140525Z 33019G24KT 01/M10 A302 RMK A01 T00111098  RH  045%=      5-min Rain = 0
KBWS 140530Z 33019KT 01/M10 A3021 RMK A01 T00111099  RH  044%=      5-min Rain = 0
KBWS 140535Z 33019KT 01/M10 A3021 RMK A01 T00111099  RH  044%=      5-min Rain = 0
KBWS 140540Z 33018G24KT 01/M10 A3021 RMK A01 T00111099  RH  044%=      5-min Rain = 0
KBWS 140545Z 33017G22KT 01/M10 A3021 RMK A01 T00101098  RH  045%=      5-min Rain = 0
KBWS 140550Z 33018KT 01/M10 A3021 RMK A01 T00091099  RH  045%=      5-min Rain = 0
KBWS 140555Z 34018KT 01/M10 A3021 RMK A01 T00091100  RH  045%=      5-min Rain = 0

Page generated in 0.0092 seconds.